sensor_id;sensor_type;location;lat;lon;timestamp;P1;durP1;ratioP1;P2;durP2;ratioP2
7017;SDS011;3549;42.162;24.726;2022-11-11T00:02:21;118.63;;;53.23;;
7017;SDS011;3549;42.162;24.726;2022-11-11T00:04:47;119.10;;;55.13;;
7017;SDS011;3549;42.162;24.726;2022-11-11T00:07:12;135.67;;;61.17;;
7017;SDS011;3549;42.162;24.726;2022-11-11T00:09:38;235.23;;;110.50;;
7017;SDS011;3549;42.162;24.726;2022-11-11T00:12:03;150.30;;;65.07;;
7017;SDS011;3549;42.162;24.726;2022-11-11T00:14:29;143.63;;;67.73;;
7017;SDS011;3549;42.162;24.726;2022-11-11T00:16:54;128.90;;;58.57;;
7017;SDS011;3549;42.162;24.726;2022-11-11T00:19:38;115.50;;;53.63;;
7017;SDS011;3549;42.162;24.726;2022-11-11T00:22:22;116.80;;;52.63;;
7017;SDS011;3549;42.162;24.726;2022-11-11T00:25:06;121.33;;;53.73;;
7017;SDS011;3549;42.162;24.726;2022-11-11T00:27:33;118.03;;;52.80;;
7017;SDS011;3549;42.162;24.726;2022-11-11T00:29:59;125.53;;;54.30;;
7017;SDS011;3549;42.162;24.726;2022-11-11T00:32:25;126.00;;;54.37;;
7017;SDS011;3549;42.162;24.726;2022-11-11T00:34:56;124.27;;;53.93;;
7017;SDS011;3549;42.162;24.726;2022-11-11T00:37:41;125.57;;;54.03;;
7017;SDS011;3549;42.162;24.726;2022-11-11T00:40:09;124.00;;;54.53;;
7017;SDS011;3549;42.162;24.726;2022-11-11T00:42:35;130.10;;;56.50;;
7017;SDS011;3549;42.162;24.726;2022-11-11T00:45:01;120.00;;;53.87;;
7017;SDS011;3549;42.162;24.726;2022-11-11T00:47:26;123.80;;;55.13;;
7017;SDS011;3549;42.162;24.726;2022-11-11T00:50:12;122.50;;;54.27;;
7017;SDS011;3549;42.162;24.726;2022-11-11T00:53:02;132.43;;;56.63;;
7017;SDS011;3549;42.162;24.726;2022-11-11T00:55:28;128.23;;;55.10;;
7017;SDS011;3549;42.162;24.726;2022-11-11T00:57:53;128.20;;;56.23;;
7017;SDS011;3549;42.162;24.726;2022-11-11T01:00:19;122.13;;;54.47;;
7017;SDS011;3549;42.162;24.726;2022-11-11T01:02:44;128.70;;;54.37;;
7017;SDS011;3549;42.162;24.726;2022-11-11T01:05:10;112.00;;;51.43;;
7017;SDS011;3549;42.162;24.726;2022-11-11T01:07:35;119.93;;;53.07;;
7017;SDS011;3549;42.162;24.726;2022-11-11T01:10:00;119.47;;;52.50;;
7017;SDS011;3549;42.162;24.726;2022-11-11T01:12:26;118.43;;;52.60;;
7017;SDS011;3549;42.162;24.726;2022-11-11T01:14:51;126.63;;;53.63;;
7017;SDS011;3549;42.162;24.726;2022-11-11T01:17:17;117.63;;;51.67;;
7017;SDS011;3549;42.162;24.726;2022-11-11T01:19:43;120.97;;;51.60;;
7017;SDS011;3549;42.162;24.726;2022-11-11T01:22:09;123.33;;;53.63;;
7017;SDS011;3549;42.162;24.726;2022-11-11T01:24:35;116.30;;;51.77;;
7017;SDS011;3549;42.162;24.726;2022-11-11T01:27:01;119.60;;;50.47;;
7017;SDS011;3549;42.162;24.726;2022-11-11T01:29:27;114.27;;;50.77;;
7017;SDS011;3549;42.162;24.726;2022-11-11T01:31:53;108.77;;;50.53;;
7017;SDS011;3549;42.162;24.726;2022-11-11T01:34:18;112.93;;;50.90;;
7017;SDS011;3549;42.162;24.726;2022-11-11T01:36:43;109.93;;;49.97;;
7017;SDS011;3549;42.162;24.726;2022-11-11T01:39:09;115.50;;;51.00;;
7017;SDS011;3549;42.162;24.726;2022-11-11T01:41:34;119.40;;;50.00;;
7017;SDS011;3549;42.162;24.726;2022-11-11T01:49:18;120.90;;;51.90;;
7017;SDS011;3549;42.162;24.726;2022-11-11T01:52:07;113.87;;;50.10;;
7017;SDS011;3549;42.162;24.726;2022-11-11T01:54:36;117.27;;;53.33;;
7017;SDS011;3549;42.162;24.726;2022-11-11T02:00:00;124.53;;;53.47;;
7017;SDS011;3549;42.162;24.726;2022-11-11T02:02:33;116.87;;;51.37;;
7017;SDS011;3549;42.162;24.726;2022-11-11T02:05:04;104.20;;;48.77;;
7017;SDS011;3549;42.162;24.726;2022-11-11T02:07:51;113.03;;;49.87;;
7017;SDS011;3549;42.162;24.726;2022-11-11T02:10:18;104.63;;;46.50;;
7017;SDS011;3549;42.162;24.726;2022-11-11T02:12:47;103.83;;;48.97;;
7017;SDS011;3549;42.162;24.726;2022-11-11T02:15:31;107.10;;;49.23;;
7017;SDS011;3549;42.162;24.726;2022-11-11T02:17:57;113.07;;;50.20;;
7017;SDS011;3549;42.162;24.726;2022-11-11T02:20:25;122.10;;;51.37;;
7017;SDS011;3549;42.162;24.726;2022-11-11T02:25:28;106.73;;;48.90;;
7017;SDS011;3549;42.162;24.726;2022-11-11T02:27:57;105.50;;;47.17;;
7017;SDS011;3549;42.162;24.726;2022-11-11T02:30:27;106.73;;;47.07;;
7017;SDS011;3549;42.162;24.726;2022-11-11T02:32:53;97.77;;;45.70;;
7017;SDS011;3549;42.162;24.726;2022-11-11T02:35:20;100.53;;;47.37;;
7017;SDS011;3549;42.162;24.726;2022-11-11T02:37:50;102.93;;;47.47;;
7017;SDS011;3549;42.162;24.726;2022-11-11T02:40:22;106.53;;;47.60;;
7017;SDS011;3549;42.162;24.726;2022-11-11T02:42:51;108.27;;;47.83;;
7017;SDS011;3549;42.162;24.726;2022-11-11T02:45:16;108.00;;;48.17;;
7017;SDS011;3549;42.162;24.726;2022-11-11T02:47:42;117.20;;;49.70;;
7017;SDS011;3549;42.162;24.726;2022-11-11T02:50:07;119.30;;;51.53;;
7017;SDS011;3549;42.162;24.726;2022-11-11T02:52:33;114.43;;;50.53;;
7017;SDS011;3549;42.162;24.726;2022-11-11T02:54:59;107.17;;;48.70;;
7017;SDS011;3549;42.162;24.726;2022-11-11T02:57:24;114.63;;;49.13;;
7017;SDS011;3549;42.162;24.726;2022-11-11T02:59:50;109.77;;;47.03;;
7017;SDS011;3549;42.162;24.726;2022-11-11T03:02:15;112.73;;;49.47;;
7017;SDS011;3549;42.162;24.726;2022-11-11T03:04:41;115.30;;;50.10;;
7017;SDS011;3549;42.162;24.726;2022-11-11T03:07:06;111.57;;;51.73;;
7017;SDS011;3549;42.162;24.726;2022-11-11T03:09:32;118.97;;;53.00;;
7017;SDS011;3549;42.162;24.726;2022-11-11T03:11:58;117.87;;;53.90;;
7017;SDS011;3549;42.162;24.726;2022-11-11T03:14:23;110.97;;;52.17;;
7017;SDS011;3549;42.162;24.726;2022-11-11T03:16:49;122.57;;;55.20;;
7017;SDS011;3549;42.162;24.726;2022-11-11T03:19:33;124.13;;;56.00;;
7017;SDS011;3549;42.162;24.726;2022-11-11T03:21:59;121.27;;;55.33;;
7017;SDS011;3549;42.162;24.726;2022-11-11T03:24:27;113.00;;;50.33;;
7017;SDS011;3549;42.162;24.726;2022-11-11T03:27:12;110.40;;;49.37;;
7017;SDS011;3549;42.162;24.726;2022-11-11T03:29:37;111.40;;;49.17;;
7017;SDS011;3549;42.162;24.726;2022-11-11T03:32:03;112.33;;;48.40;;
7017;SDS011;3549;42.162;24.726;2022-11-11T03:34:29;110.77;;;48.67;;
7017;SDS011;3549;42.162;24.726;2022-11-11T03:36:55;108.67;;;49.37;;
7017;SDS011;3549;42.162;24.726;2022-11-11T03:39:39;115.10;;;50.07;;
7017;SDS011;3549;42.162;24.726;2022-11-11T03:42:04;108.23;;;49.43;;
7017;SDS011;3549;42.162;24.726;2022-11-11T03:44:29;112.50;;;48.70;;
7017;SDS011;3549;42.162;24.726;2022-11-11T03:46:55;112.87;;;50.27;;
7017;SDS011;3549;42.162;24.726;2022-11-11T03:49:20;110.27;;;50.03;;
7017;SDS011;3549;42.162;24.726;2022-11-11T03:51:46;109.13;;;48.77;;
7017;SDS011;3549;42.162;24.726;2022-11-11T03:54:11;108.37;;;47.93;;
7017;SDS011;3549;42.162;24.726;2022-11-11T03:56:37;108.67;;;49.27;;
7017;SDS011;3549;42.162;24.726;2022-11-11T03:59:02;118.93;;;50.20;;
7017;SDS011;3549;42.162;24.726;2022-11-11T04:01:28;111.50;;;49.30;;
7017;SDS011;3549;42.162;24.726;2022-11-11T04:04:12;108.03;;;48.73;;
7017;SDS011;3549;42.162;24.726;2022-11-11T04:06:56;111.00;;;47.80;;
7017;SDS011;3549;42.162;24.726;2022-11-11T04:09:40;107.63;;;48.33;;
7017;SDS011;3549;42.162;24.726;2022-11-11T04:12:24;113.10;;;48.90;;
7017;SDS011;3549;42.162;24.726;2022-11-11T04:14:51;329.60;;;128.67;;
7017;SDS011;3549;42.162;24.726;2022-11-11T04:17:34;213.87;;;88.13;;
7017;SDS011;3549;42.162;24.726;2022-11-11T04:20:00;206.77;;;90.13;;
7017;SDS011;3549;42.162;24.726;2022-11-11T04:22:43;217.90;;;92.03;;
7017;SDS011;3549;42.162;24.726;2022-11-11T04:25:09;146.50;;;67.37;;
7017;SDS011;3549;42.162;24.726;2022-11-11T04:27:56;187.53;;;75.10;;
7017;SDS011;3549;42.162;24.726;2022-11-11T04:30:40;194.53;;;77.87;;
7017;SDS011;3549;42.162;24.726;2022-11-11T04:33:05;138.77;;;60.63;;
7017;SDS011;3549;42.162;24.726;2022-11-11T04:35:31;140.83;;;60.17;;
7017;SDS011;3549;42.162;24.726;2022-11-11T04:37:56;142.83;;;60.77;;
7017;SDS011;3549;42.162;24.726;2022-11-11T04:40:41;155.40;;;66.00;;
7017;SDS011;3549;42.162;24.726;2022-11-11T04:43:25;159.37;;;70.43;;
7017;SDS011;3549;42.162;24.726;2022-11-11T04:45:51;186.43;;;79.80;;
7017;SDS011;3549;42.162;24.726;2022-11-11T04:48:16;200.37;;;88.93;;
7017;SDS011;3549;42.162;24.726;2022-11-11T04:50:42;174.50;;;79.03;;
7017;SDS011;3549;42.162;24.726;2022-11-11T04:53:09;129.37;;;57.73;;
7017;SDS011;3549;42.162;24.726;2022-11-11T04:55:37;131.47;;;59.23;;
7017;SDS011;3549;42.162;24.726;2022-11-11T04:58:23;116.53;;;51.23;;
7017;SDS011;3549;42.162;24.726;2022-11-11T05:00:50;126.17;;;52.57;;
7017;SDS011;3549;42.162;24.726;2022-11-11T05:03:16;115.80;;;49.63;;
7017;SDS011;3549;42.162;24.726;2022-11-11T05:08:41;231.13;;;103.27;;
7017;SDS011;3549;42.162;24.726;2022-11-11T05:11:20;180.20;;;75.80;;
7017;SDS011;3549;42.162;24.726;2022-11-11T05:13:48;315.43;;;135.43;;
7017;SDS011;3549;42.162;24.726;2022-11-11T05:16:33;246.77;;;111.53;;
7017;SDS011;3549;42.162;24.726;2022-11-11T05:19:22;200.73;;;91.57;;
7017;SDS011;3549;42.162;24.726;2022-11-11T05:22:08;160.30;;;67.23;;
7017;SDS011;3549;42.162;24.726;2022-11-11T05:24:38;154.57;;;66.07;;
7017;SDS011;3549;42.162;24.726;2022-11-11T05:27:22;143.80;;;63.77;;
7017;SDS011;3549;42.162;24.726;2022-11-11T05:29:48;156.70;;;68.53;;
7017;SDS011;3549;42.162;24.726;2022-11-11T05:32:20;152.23;;;67.00;;
7017;SDS011;3549;42.162;24.726;2022-11-11T05:34:46;143.37;;;60.87;;
7017;SDS011;3549;42.162;24.726;2022-11-11T05:37:12;140.43;;;58.27;;
7017;SDS011;3549;42.162;24.726;2022-11-11T05:39:38;128.47;;;57.00;;
7017;SDS011;3549;42.162;24.726;2022-11-11T05:42:03;126.73;;;56.63;;
7017;SDS011;3549;42.162;24.726;2022-11-11T05:44:28;117.40;;;53.50;;
7017;SDS011;3549;42.162;24.726;2022-11-11T05:46:54;108.10;;;48.73;;
7017;SDS011;3549;42.162;24.726;2022-11-11T05:49:19;107.47;;;47.50;;
7017;SDS011;3549;42.162;24.726;2022-11-11T05:51:45;125.20;;;55.10;;
7017;SDS011;3549;42.162;24.726;2022-11-11T05:54:11;115.27;;;50.87;;
7017;SDS011;3549;42.162;24.726;2022-11-11T05:56:38;264.43;;;116.40;;
7017;SDS011;3549;42.162;24.726;2022-11-11T05:59:04;237.60;;;98.20;;
7017;SDS011;3549;42.162;24.726;2022-11-11T06:01:30;144.53;;;62.57;;
7017;SDS011;3549;42.162;24.726;2022-11-11T06:03:55;130.70;;;57.23;;
7017;SDS011;3549;42.162;24.726;2022-11-11T06:06:21;124.70;;;55.20;;
7017;SDS011;3549;42.162;24.726;2022-11-11T06:08:46;119.87;;;52.83;;
7017;SDS011;3549;42.162;24.726;2022-11-11T06:11:12;109.50;;;49.57;;
7017;SDS011;3549;42.162;24.726;2022-11-11T06:13:38;103.97;;;45.93;;
7017;SDS011;3549;42.162;24.726;2022-11-11T06:16:03;96.10;;;45.07;;
7017;SDS011;3549;42.162;24.726;2022-11-11T06:18:29;107.40;;;47.80;;
7017;SDS011;3549;42.162;24.726;2022-11-11T06:20:55;151.73;;;63.90;;
7017;SDS011;3549;42.162;24.726;2022-11-11T06:23:22;221.57;;;96.60;;
7017;SDS011;3549;42.162;24.726;2022-11-11T06:25:48;230.77;;;103.77;;
7017;SDS011;3549;42.162;24.726;2022-11-11T06:28:32;186.20;;;86.47;;
7017;SDS011;3549;42.162;24.726;2022-11-11T06:30:58;154.70;;;70.47;;
7017;SDS011;3549;42.162;24.726;2022-11-11T06:33:24;240.47;;;112.40;;
7017;SDS011;3549;42.162;24.726;2022-11-11T06:35:49;172.40;;;84.57;;
7017;SDS011;3549;42.162;24.726;2022-11-11T06:38:15;163.13;;;75.33;;
7017;SDS011;3549;42.162;24.726;2022-11-11T06:40:41;124.63;;;54.97;;
7017;SDS011;3549;42.162;24.726;2022-11-11T06:43:07;104.93;;;48.33;;
7017;SDS011;3549;42.162;24.726;2022-11-11T06:45:33;100.60;;;47.80;;
7017;SDS011;3549;42.162;24.726;2022-11-11T06:48:00;108.70;;;49.03;;
7017;SDS011;3549;42.162;24.726;2022-11-11T06:50:26;104.37;;;48.53;;
7017;SDS011;3549;42.162;24.726;2022-11-11T06:52:53;121.10;;;55.57;;
7017;SDS011;3549;42.162;24.726;2022-11-11T06:55:18;162.40;;;65.77;;
7017;SDS011;3549;42.162;24.726;2022-11-11T06:57:43;170.70;;;72.83;;
7017;SDS011;3549;42.162;24.726;2022-11-11T07:00:09;121.67;;;55.73;;
7017;SDS011;3549;42.162;24.726;2022-11-11T07:02:35;117.13;;;52.80;;
7017;SDS011;3549;42.162;24.726;2022-11-11T07:05:00;123.47;;;57.67;;
7017;SDS011;3549;42.162;24.726;2022-11-11T07:07:26;152.07;;;68.03;;
7017;SDS011;3549;42.162;24.726;2022-11-11T07:09:52;140.13;;;67.20;;
7017;SDS011;3549;42.162;24.726;2022-11-11T07:12:19;108.90;;;54.10;;
7017;SDS011;3549;42.162;24.726;2022-11-11T07:14:45;110.73;;;52.20;;
7017;SDS011;3549;42.162;24.726;2022-11-11T07:17:11;99.07;;;48.00;;
7017;SDS011;3549;42.162;24.726;2022-11-11T07:19:36;95.80;;;47.33;;
7017;SDS011;3549;42.162;24.726;2022-11-11T07:22:02;98.47;;;47.40;;
7017;SDS011;3549;42.162;24.726;2022-11-11T07:24:27;90.43;;;46.57;;
7017;SDS011;3549;42.162;24.726;2022-11-11T07:26:53;70.13;;;39.33;;
7017;SDS011;3549;42.162;24.726;2022-11-11T07:29:18;60.30;;;32.40;;
7017;SDS011;3549;42.162;24.726;2022-11-11T07:31:44;48.67;;;28.00;;
7017;SDS011;3549;42.162;24.726;2022-11-11T07:34:09;45.20;;;23.80;;
7017;SDS011;3549;42.162;24.726;2022-11-11T07:36:34;34.37;;;16.27;;
7017;SDS011;3549;42.162;24.726;2022-11-11T07:39:00;32.97;;;17.87;;
7017;SDS011;3549;42.162;24.726;2022-11-11T07:41:25;39.70;;;20.57;;
7017;SDS011;3549;42.162;24.726;2022-11-11T07:43:51;45.33;;;24.50;;
7017;SDS011;3549;42.162;24.726;2022-11-11T07:46:17;33.47;;;17.57;;
7017;SDS011;3549;42.162;24.726;2022-11-11T07:48:42;35.30;;;18.40;;
7017;SDS011;3549;42.162;24.726;2022-11-11T07:51:08;35.77;;;17.83;;
7017;SDS011;3549;42.162;24.726;2022-11-11T07:53:33;37.20;;;20.13;;
7017;SDS011;3549;42.162;24.726;2022-11-11T07:55:59;40.00;;;21.03;;
7017;SDS011;3549;42.162;24.726;2022-11-11T07:58:24;44.90;;;22.13;;
7017;SDS011;3549;42.162;24.726;2022-11-11T08:00:50;40.27;;;21.43;;
7017;SDS011;3549;42.162;24.726;2022-11-11T08:03:15;42.77;;;21.80;;
7017;SDS011;3549;42.162;24.726;2022-11-11T08:05:40;37.60;;;18.27;;
7017;SDS011;3549;42.162;24.726;2022-11-11T08:08:06;37.70;;;20.70;;
7017;SDS011;3549;42.162;24.726;2022-11-11T08:10:33;44.73;;;22.87;;
7017;SDS011;3549;42.162;24.726;2022-11-11T08:12:59;35.17;;;19.67;;
7017;SDS011;3549;42.162;24.726;2022-11-11T08:15:43;34.93;;;18.60;;
7017;SDS011;3549;42.162;24.726;2022-11-11T08:18:08;41.00;;;17.67;;
7017;SDS011;3549;42.162;24.726;2022-11-11T08:20:34;38.57;;;20.83;;
7017;SDS011;3549;42.162;24.726;2022-11-11T08:23:00;40.83;;;21.23;;
7017;SDS011;3549;42.162;24.726;2022-11-11T08:25:28;39.10;;;20.20;;
7017;SDS011;3549;42.162;24.726;2022-11-11T08:27:57;34.37;;;18.73;;
7017;SDS011;3549;42.162;24.726;2022-11-11T08:30:23;36.23;;;18.43;;
7017;SDS011;3549;42.162;24.726;2022-11-11T08:32:59;37.47;;;20.10;;
7017;SDS011;3549;42.162;24.726;2022-11-11T08:35:25;32.90;;;14.93;;
7017;SDS011;3549;42.162;24.726;2022-11-11T08:37:51;38.37;;;20.90;;
7017;SDS011;3549;42.162;24.726;2022-11-11T08:40:18;38.20;;;21.33;;
7017;SDS011;3549;42.162;24.726;2022-11-11T08:42:44;41.27;;;19.53;;
7017;SDS011;3549;42.162;24.726;2022-11-11T08:45:09;36.10;;;20.60;;
7017;SDS011;3549;42.162;24.726;2022-11-11T08:47:35;34.50;;;19.27;;
7017;SDS011;3549;42.162;24.726;2022-11-11T08:50:01;33.23;;;17.30;;
7017;SDS011;3549;42.162;24.726;2022-11-11T08:52:27;35.83;;;17.53;;
7017;SDS011;3549;42.162;24.726;2022-11-11T08:54:52;31.47;;;16.90;;
7017;SDS011;3549;42.162;24.726;2022-11-11T08:57:18;44.47;;;21.50;;
7017;SDS011;3549;42.162;24.726;2022-11-11T08:59:43;39.80;;;22.20;;
7017;SDS011;3549;42.162;24.726;2022-11-11T09:02:12;45.50;;;22.43;;
7017;SDS011;3549;42.162;24.726;2022-11-11T09:04:39;46.57;;;22.40;;
7017;SDS011;3549;42.162;24.726;2022-11-11T09:07:10;38.20;;;19.90;;
7017;SDS011;3549;42.162;24.726;2022-11-11T09:09:36;41.30;;;21.23;;
7017;SDS011;3549;42.162;24.726;2022-11-11T09:12:02;61.80;;;30.30;;
7017;SDS011;3549;42.162;24.726;2022-11-11T09:14:27;35.43;;;19.93;;
7017;SDS011;3549;42.162;24.726;2022-11-11T09:16:53;32.70;;;17.00;;
7017;SDS011;3549;42.162;24.726;2022-11-11T09:19:21;35.30;;;18.73;;
7017;SDS011;3549;42.162;24.726;2022-11-11T09:21:47;33.97;;;19.07;;
7017;SDS011;3549;42.162;24.726;2022-11-11T09:24:15;38.00;;;21.83;;
7017;SDS011;3549;42.162;24.726;2022-11-11T09:26:40;39.03;;;21.77;;
7017;SDS011;3549;42.162;24.726;2022-11-11T09:29:05;36.57;;;19.60;;
7017;SDS011;3549;42.162;24.726;2022-11-11T09:31:31;31.83;;;17.50;;
7017;SDS011;3549;42.162;24.726;2022-11-11T09:33:56;33.50;;;18.27;;
7017;SDS011;3549;42.162;24.726;2022-11-11T09:36:22;59.83;;;29.03;;
7017;SDS011;3549;42.162;24.726;2022-11-11T09:38:47;36.60;;;19.23;;
7017;SDS011;3549;42.162;24.726;2022-11-11T09:41:36;40.97;;;22.77;;
7017;SDS011;3549;42.162;24.726;2022-11-11T09:44:01;33.27;;;18.80;;
7017;SDS011;3549;42.162;24.726;2022-11-11T09:46:32;32.73;;;17.80;;
7017;SDS011;3549;42.162;24.726;2022-11-11T09:52:21;28.63;;;15.27;;
7017;SDS011;3549;42.162;24.726;2022-11-11T09:54:56;36.03;;;18.70;;
7017;SDS011;3549;42.162;24.726;2022-11-11T09:57:39;30.97;;;18.30;;
7017;SDS011;3549;42.162;24.726;2022-11-11T10:00:14;30.10;;;17.37;;
7017;SDS011;3549;42.162;24.726;2022-11-11T10:02:54;29.30;;;15.80;;
7017;SDS011;3549;42.162;24.726;2022-11-11T10:08:20;28.37;;;13.67;;
7017;SDS011;3549;42.162;24.726;2022-11-11T10:10:48;33.47;;;16.63;;
7017;SDS011;3549;42.162;24.726;2022-11-11T10:13:18;26.33;;;13.97;;
7017;SDS011;3549;42.162;24.726;2022-11-11T10:18:25;27.23;;;15.10;;
7017;SDS011;3549;42.162;24.726;2022-11-11T10:21:00;28.87;;;15.87;;
7017;SDS011;3549;42.162;24.726;2022-11-11T10:23:31;26.27;;;14.10;;
7017;SDS011;3549;42.162;24.726;2022-11-11T10:26:18;31.97;;;17.80;;
7017;SDS011;3549;42.162;24.726;2022-11-11T10:28:48;30.83;;;16.07;;
7017;SDS011;3549;42.162;24.726;2022-11-11T10:31:17;27.17;;;15.57;;
7017;SDS011;3549;42.162;24.726;2022-11-11T10:36:17;27.10;;;14.27;;
7017;SDS011;3549;42.162;24.726;2022-11-11T10:38:46;22.63;;;12.60;;
7017;SDS011;3549;42.162;24.726;2022-11-11T10:41:22;28.50;;;15.20;;
7017;SDS011;3549;42.162;24.726;2022-11-11T10:43:54;24.87;;;14.33;;
7017;SDS011;3549;42.162;24.726;2022-11-11T10:48:59;29.23;;;16.93;;
7017;SDS011;3549;42.162;24.726;2022-11-11T10:51:51;22.37;;;13.97;;
7017;SDS011;3549;42.162;24.726;2022-11-11T10:54:21;27.40;;;13.57;;
7017;SDS011;3549;42.162;24.726;2022-11-11T10:59:25;22.90;;;13.87;;
7017;SDS011;3549;42.162;24.726;2022-11-11T11:01:59;25.30;;;13.53;;
7017;SDS011;3549;42.162;24.726;2022-11-11T11:04:39;22.80;;;12.27;;
7017;SDS011;3549;42.162;24.726;2022-11-11T11:07:10;28.03;;;15.00;;
7017;SDS011;3549;42.162;24.726;2022-11-11T11:09:43;29.00;;;14.77;;
7017;SDS011;3549;42.162;24.726;2022-11-11T11:12:18;24.47;;;13.57;;
7017;SDS011;3549;42.162;24.726;2022-11-11T11:14:50;22.97;;;12.53;;
7017;SDS011;3549;42.162;24.726;2022-11-11T11:17:31;25.07;;;12.93;;
7017;SDS011;3549;42.162;24.726;2022-11-11T11:20:06;22.40;;;13.57;;
7017;SDS011;3549;42.162;24.726;2022-11-11T11:22:43;24.17;;;14.03;;
7017;SDS011;3549;42.162;24.726;2022-11-11T11:25:11;24.40;;;12.90;;
7017;SDS011;3549;42.162;24.726;2022-11-11T11:27:37;22.30;;;13.43;;
7017;SDS011;3549;42.162;24.726;2022-11-11T11:30:10;23.50;;;12.30;;
7017;SDS011;3549;42.162;24.726;2022-11-11T11:32:37;25.63;;;14.17;;
7017;SDS011;3549;42.162;24.726;2022-11-11T11:35:06;26.00;;;14.30;;
7017;SDS011;3549;42.162;24.726;2022-11-11T11:37:35;29.90;;;15.27;;
7017;SDS011;3549;42.162;24.726;2022-11-11T11:40:13;29.60;;;16.00;;
7017;SDS011;3549;42.162;24.726;2022-11-11T11:42:39;28.40;;;15.13;;
7017;SDS011;3549;42.162;24.726;2022-11-11T11:45:26;33.17;;;16.33;;
7017;SDS011;3549;42.162;24.726;2022-11-11T11:53:33;40.17;;;18.67;;
7017;SDS011;3549;42.162;24.726;2022-11-11T12:04:03;36.77;;;20.23;;
7017;SDS011;3549;42.162;24.726;2022-11-11T12:09:23;32.93;;;18.23;;
7017;SDS011;3549;42.162;24.726;2022-11-11T12:12:08;42.10;;;20.47;;
7017;SDS011;3549;42.162;24.726;2022-11-11T12:20:10;32.63;;;17.30;;
7017;SDS011;3549;42.162;24.726;2022-11-11T12:30:39;32.47;;;17.07;;
7017;SDS011;3549;42.162;24.726;2022-11-11T12:33:37;31.10;;;16.43;;
7017;SDS011;3549;42.162;24.726;2022-11-11T12:44:32;29.57;;;16.67;;
7017;SDS011;3549;42.162;24.726;2022-11-11T12:55:52;175.87;;;92.57;;
7017;SDS011;3549;42.162;24.726;2022-11-11T13:01:09;115.00;;;63.57;;
7017;SDS011;3549;42.162;24.726;2022-11-11T13:06:52;101.37;;;54.50;;
7017;SDS011;3549;42.162;24.726;2022-11-11T13:15:23;76.73;;;42.23;;
7017;SDS011;3549;42.162;24.726;2022-11-11T13:17:50;104.33;;;46.37;;
7017;SDS011;3549;42.162;24.726;2022-11-11T13:22:53;90.67;;;45.33;;
7017;SDS011;3549;42.162;24.726;2022-11-11T13:25:22;78.93;;;40.27;;
7017;SDS011;3549;42.162;24.726;2022-11-11T13:33:48;112.07;;;56.83;;
7017;SDS011;3549;42.162;24.726;2022-11-11T13:36:17;185.73;;;86.60;;
7017;SDS011;3549;42.162;24.726;2022-11-11T13:38:52;161.87;;;77.20;;
7017;SDS011;3549;42.162;24.726;2022-11-11T13:41:22;152.63;;;69.67;;
7017;SDS011;3549;42.162;24.726;2022-11-11T13:43:54;102.53;;;46.20;;
7017;SDS011;3549;42.162;24.726;2022-11-11T13:49:28;88.87;;;38.80;;
7017;SDS011;3549;42.162;24.726;2022-11-11T13:52:02;69.43;;;34.30;;
7017;SDS011;3549;42.162;24.726;2022-11-11T13:54:36;68.40;;;33.77;;
7017;SDS011;3549;42.162;24.726;2022-11-11T13:59:39;66.33;;;33.53;;
7017;SDS011;3549;42.162;24.726;2022-11-11T14:12:49;51.20;;;27.97;;
7017;SDS011;3549;42.162;24.726;2022-11-11T14:18:02;51.40;;;26.73;;
7017;SDS011;3549;42.162;24.726;2022-11-11T14:20:39;51.73;;;26.93;;
7017;SDS011;3549;42.162;24.726;2022-11-11T14:36:31;41.07;;;20.47;;
7017;SDS011;3549;42.162;24.726;2022-11-11T14:52:28;28.67;;;14.03;;
7017;SDS011;3549;42.162;24.726;2022-11-11T14:57:49;27.13;;;14.77;;
7017;SDS011;3549;42.162;24.726;2022-11-11T15:00:25;29.90;;;15.30;;
7017;SDS011;3549;42.162;24.726;2022-11-11T15:05:30;28.37;;;15.97;;
7017;SDS011;3549;42.162;24.726;2022-11-11T15:08:35;35.97;;;20.03;;
7017;SDS011;3549;42.162;24.726;2022-11-11T15:16:48;31.50;;;16.80;;
7017;SDS011;3549;42.162;24.726;2022-11-11T15:27:19;29.93;;;15.73;;
7017;SDS011;3549;42.162;24.726;2022-11-11T15:30:14;30.83;;;16.27;;
7017;SDS011;3549;42.162;24.726;2022-11-11T15:35:30;33.87;;;16.90;;
7017;SDS011;3549;42.162;24.726;2022-11-11T15:38:00;33.17;;;16.87;;
7017;SDS011;3549;42.162;24.726;2022-11-11T15:40:31;33.10;;;17.30;;
7017;SDS011;3549;42.162;24.726;2022-11-11T15:43:21;32.10;;;16.60;;
7017;SDS011;3549;42.162;24.726;2022-11-11T15:46:12;32.43;;;16.53;;
7017;SDS011;3549;42.162;24.726;2022-11-11T15:48:46;28.80;;;15.37;;
7017;SDS011;3549;42.162;24.726;2022-11-11T15:51:15;29.13;;;14.77;;
7017;SDS011;3549;42.162;24.726;2022-11-11T15:53:42;23.60;;;10.57;;
7017;SDS011;3549;42.162;24.726;2022-11-11T15:56:08;24.77;;;14.53;;
7017;SDS011;3549;42.162;24.726;2022-11-11T15:58:34;31.30;;;15.63;;
7017;SDS011;3549;42.162;24.726;2022-11-11T16:01:01;26.20;;;14.23;;
7017;SDS011;3549;42.162;24.726;2022-11-11T16:03:32;25.93;;;14.67;;
7017;SDS011;3549;42.162;24.726;2022-11-11T16:06:06;30.83;;;16.00;;
7017;SDS011;3549;42.162;24.726;2022-11-11T16:08:39;25.23;;;14.33;;
7017;SDS011;3549;42.162;24.726;2022-11-11T16:11:08;26.47;;;15.40;;
7017;SDS011;3549;42.162;24.726;2022-11-11T16:13:38;23.13;;;13.83;;
7017;SDS011;3549;42.162;24.726;2022-11-11T16:16:11;24.07;;;13.93;;
7017;SDS011;3549;42.162;24.726;2022-11-11T16:18:45;28.00;;;16.17;;
7017;SDS011;3549;42.162;24.726;2022-11-11T16:23:43;30.27;;;15.80;;
7017;SDS011;3549;42.162;24.726;2022-11-11T16:26:09;33.77;;;17.80;;
7017;SDS011;3549;42.162;24.726;2022-11-11T16:28:57;27.17;;;15.20;;
7017;SDS011;3549;42.162;24.726;2022-11-11T16:34:00;21.27;;;11.77;;
7017;SDS011;3549;42.162;24.726;2022-11-11T16:37:01;18.83;;;11.30;;
7017;SDS011;3549;42.162;24.726;2022-11-11T16:39:32;32.00;;;15.77;;
7017;SDS011;3549;42.162;24.726;2022-11-11T16:41:59;33.03;;;18.23;;
7017;SDS011;3549;42.162;24.726;2022-11-11T16:47:04;24.83;;;12.03;;
7017;SDS011;3549;42.162;24.726;2022-11-11T16:49:39;20.40;;;11.53;;
7017;SDS011;3549;42.162;24.726;2022-11-11T16:52:14;20.03;;;11.27;;
7017;SDS011;3549;42.162;24.726;2022-11-11T16:54:52;19.40;;;11.07;;
7017;SDS011;3549;42.162;24.726;2022-11-11T16:57:25;36.20;;;16.13;;
7017;SDS011;3549;42.162;24.726;2022-11-11T16:59:57;20.77;;;10.23;;
7017;SDS011;3549;42.162;24.726;2022-11-11T17:05:56;17.70;;;10.43;;
7017;SDS011;3549;42.162;24.726;2022-11-11T17:08:42;16.97;;;10.57;;
7017;SDS011;3549;42.162;24.726;2022-11-11T17:14:15;25.17;;;13.50;;
7017;SDS011;3549;42.162;24.726;2022-11-11T17:16:41;21.77;;;12.70;;
7017;SDS011;3549;42.162;24.726;2022-11-11T17:22:14;21.83;;;12.07;;
7017;SDS011;3549;42.162;24.726;2022-11-11T17:24:44;17.53;;;10.17;;
7017;SDS011;3549;42.162;24.726;2022-11-11T17:27:12;18.63;;;10.20;;
7017;SDS011;3549;42.162;24.726;2022-11-11T17:29:40;18.43;;;10.53;;
7017;SDS011;3549;42.162;24.726;2022-11-11T17:32:09;23.20;;;11.70;;
7017;SDS011;3549;42.162;24.726;2022-11-11T17:34:37;24.27;;;13.67;;
7017;SDS011;3549;42.162;24.726;2022-11-11T17:37:17;19.67;;;11.00;;
7017;SDS011;3549;42.162;24.726;2022-11-11T17:39:49;19.70;;;9.97;;
7017;SDS011;3549;42.162;24.726;2022-11-11T17:42:19;19.53;;;10.87;;
7017;SDS011;3549;42.162;24.726;2022-11-11T17:44:53;19.40;;;10.77;;
7017;SDS011;3549;42.162;24.726;2022-11-11T17:48:12;21.50;;;11.90;;
7017;SDS011;3549;42.162;24.726;2022-11-11T17:50:53;15.77;;;9.73;;